createdAt,value
2018-09-19T00:00:16.067Z,6.05
2018-09-19T00:02:44.879Z,7.00
2018-09-19T00:05:13.318Z,10.75
2018-09-19T00:07:42.629Z,11.43
2018-09-19T00:10:11.095Z,5.90
2018-09-19T00:12:39.799Z,7.42
2018-09-19T00:15:08.298Z,8.28
2018-09-19T00:17:37.308Z,7.45
2018-09-19T00:20:05.848Z,7.78
2018-09-19T00:22:34.631Z,6.62
2018-09-19T00:25:03.177Z,5.80
2018-09-19T00:27:31.927Z,7.08
2018-09-19T00:30:00.431Z,6.37
2018-09-19T00:32:29.070Z,5.65
2018-09-19T00:34:57.711Z,7.15
2018-09-19T00:37:26.446Z,8.00
2018-09-19T00:39:55.235Z,6.92
2018-09-19T00:42:46.442Z,6.95
2018-09-19T00:45:15.012Z,8.63
2018-09-19T00:47:43.585Z,6.47
2018-09-19T00:50:12.198Z,6.00
2018-09-19T00:52:54.302Z,9.40
2018-09-19T00:55:22.878Z,5.97
2018-09-19T00:57:51.690Z,6.22
2018-09-19T01:00:20.447Z,6.90
2018-09-19T01:02:53.973Z,6.55
2018-09-19T01:05:22.535Z,6.28
2018-09-19T01:07:49.996Z,9.48
2018-09-19T01:10:18.567Z,7.03
2018-09-19T01:12:47.169Z,6.12
2018-09-19T01:15:15.909Z,9.95
2018-09-19T01:17:44.476Z,7.03
2018-09-19T01:20:13.057Z,5.78
2018-09-19T01:22:41.693Z,7.85
2018-09-19T01:25:10.340Z,7.08
2018-09-19T01:27:38.851Z,7.00
2018-09-19T01:30:07.507Z,9.03
2018-09-19T01:32:36.220Z,8.13
2018-09-19T01:35:04.798Z,8.93
2018-09-19T01:37:33.345Z,8.85
2018-09-19T01:40:02.025Z,8.75
2018-09-19T01:42:30.865Z,6.78
2018-09-19T01:44:59.389Z,10.45
2018-09-19T01:47:28.341Z,13.20
2018-09-19T01:49:56.783Z,10.82
2018-09-19T01:52:25.841Z,9.25
2018-09-19T01:54:54.228Z,8.00
2018-09-19T01:57:22.735Z,7.12
2018-09-19T01:59:51.245Z,12.70
2018-09-19T02:02:29.089Z,9.75
2018-09-19T02:04:58.011Z,10.55
2018-09-19T02:07:27.146Z,8.75
2018-09-19T02:09:55.551Z,6.75
2018-09-19T02:12:24.106Z,8.80
2018-09-19T02:14:52.600Z,7.00
2018-09-19T02:17:21.099Z,9.00
2018-09-19T02:19:49.720Z,6.78
2018-09-19T02:22:18.227Z,8.93
2018-09-19T02:24:46.653Z,8.75
2018-09-19T02:27:15.557Z,12.53
2018-09-19T02:29:44.368Z,8.83
2018-09-19T02:32:12.904Z,6.85
2018-09-19T02:34:41.389Z,9.10
2018-09-19T02:37:09.861Z,7.45
2018-09-19T02:39:38.411Z,9.25
2018-09-19T02:42:06.848Z,8.85
2018-09-19T02:44:35.336Z,9.20
2018-09-19T02:47:04.140Z,12.82
2018-09-19T02:49:32.584Z,6.67
2018-09-19T02:52:01.216Z,9.75
2018-09-19T02:54:30.793Z,7.10
2018-09-19T02:56:59.504Z,8.65
2018-09-19T02:59:28.517Z,8.75
2018-09-19T03:01:57.171Z,8.63
2018-09-19T03:04:25.655Z,8.80
2018-09-19T03:06:54.119Z,8.83
2018-09-19T03:09:22.547Z,12.20
2018-09-19T03:11:51.125Z,7.15
2018-09-19T03:14:19.578Z,9.85
2018-09-19T03:16:48.062Z,10.40
2018-09-19T03:19:16.532Z,12.98
2018-09-19T03:21:45.153Z,8.08
2018-09-19T03:24:14.552Z,8.65
2018-09-19T03:26:42.974Z,11.18
2018-09-19T03:29:11.426Z,9.18
2018-09-19T03:31:40.572Z,9.15
2018-09-19T03:34:09.057Z,9.88
2018-09-19T03:36:37.513Z,9.60
2018-09-19T03:39:08.174Z,10.30
2018-09-19T03:41:36.599Z,7.87
2018-09-19T03:44:05.476Z,7.58
2018-09-19T03:46:33.936Z,8.23
2018-09-19T03:49:02.515Z,7.35
2018-09-19T03:51:31.038Z,9.90
2018-09-19T03:54:01.450Z,7.53
2018-09-19T03:56:29.887Z,8.93
2018-09-19T03:58:58.968Z,7.60
2018-09-19T04:01:27.735Z,8.20
2018-09-19T04:03:56.303Z,9.68
2018-09-19T04:06:25.052Z,9.68
2018-09-19T04:08:56.738Z,8.65
2018-09-19T04:11:25.214Z,8.05
2018-09-19T04:13:53.714Z,7.90
2018-09-19T04:16:22.189Z,9.55
2018-09-19T04:18:50.657Z,10.38
2018-09-19T04:21:19.162Z,10.48
2018-09-19T04:23:48.826Z,8.15
2018-09-19T04:26:18.222Z,8.33
2018-09-19T04:28:48.566Z,8.03
2018-09-19T04:31:18.367Z,9.10
2018-09-19T04:33:47.107Z,14.10
2018-09-19T04:36:15.822Z,9.95
2018-09-19T04:38:44.604Z,9.65
2018-09-19T04:41:13.132Z,9.58
2018-09-19T04:43:42.046Z,14.47
2018-09-19T04:46:10.525Z,12.60
2018-09-19T04:48:38.994Z,8.38
2018-09-19T04:51:07.897Z,12.53
2018-09-19T04:53:36.526Z,12.25
2018-09-19T04:56:05.362Z,9.95
2018-09-19T04:58:34.013Z,10.23
2018-09-19T05:01:02.569Z,9.55
2018-09-19T05:03:31.424Z,12.13
2018-09-19T05:05:59.990Z,8.73
2018-09-19T05:08:28.493Z,12.45
2018-09-19T05:10:56.994Z,13.83
2018-09-19T05:13:25.651Z,11.57
2018-09-19T05:15:54.124Z,13.45
2018-09-19T05:18:22.858Z,12.00
2018-09-19T05:20:51.467Z,11.15
2018-09-19T05:23:20.283Z,12.45
2018-09-19T05:25:48.786Z,8.70
2018-09-19T05:28:17.342Z,13.05
2018-09-19T05:30:45.825Z,11.97
2018-09-19T05:33:14.366Z,10.10
2018-09-19T05:35:42.896Z,12.45
2018-09-19T05:38:11.391Z,13.30
2018-09-19T05:40:39.894Z,14.28
2018-09-19T05:43:08.457Z,11.50
2018-09-19T05:45:36.989Z,16.90
2018-09-19T05:48:05.434Z,11.70
2018-09-19T05:50:34.258Z,15.78
2018-09-19T05:53:02.836Z,14.43
2018-09-19T05:55:31.568Z,12.60
2018-09-19T05:58:00.065Z,17.48
2018-09-19T06:00:28.662Z,18.40
2018-09-19T06:02:57.486Z,11.45
2018-09-19T06:05:26.837Z,16.07
2018-09-19T06:07:55.421Z,13.90
2018-09-19T06:10:24.261Z,17.42
2018-09-19T06:12:57.986Z,18.40
2018-09-19T06:15:26.912Z,17.15
2018-09-19T06:17:55.422Z,19.42
2018-09-19T06:20:24.012Z,18.25
2018-09-19T06:22:52.569Z,23.50
2018-09-19T06:25:21.134Z,15.70
2018-09-19T06:27:50.547Z,14.58
2018-09-19T06:30:19.221Z,21.27
2018-09-19T06:32:48.000Z,19.30
2018-09-19T06:35:16.428Z,19.23
2018-09-19T06:37:45.219Z,18.82
2018-09-19T06:40:13.792Z,21.00
2018-09-19T06:42:42.568Z,18.15
2018-09-19T06:45:11.209Z,18.27
2018-09-19T06:47:39.863Z,17.25
2018-09-19T06:50:08.415Z,20.48
2018-09-19T06:52:36.999Z,19.02
2018-09-19T06:55:05.719Z,21.85
2018-09-19T06:57:34.327Z,22.52
2018-09-19T07:00:03.436Z,15.83
2018-09-19T07:02:32.007Z,26.85
2018-09-19T07:05:00.697Z,24.80
2018-09-19T07:07:39.323Z,17.45
2018-09-19T07:10:13.083Z,17.80
2018-09-19T07:12:41.697Z,17.10
2018-09-19T07:15:10.416Z,20.72
2018-09-19T07:17:38.975Z,17.95
2018-09-19T07:20:07.498Z,19.57
2018-09-19T07:22:36.015Z,17.92
2018-09-19T07:25:04.772Z,15.25
2018-09-19T07:27:33.551Z,17.48
2018-09-19T07:30:02.278Z,13.62
2018-09-19T07:32:30.881Z,15.18
2018-09-19T07:34:59.338Z,14.78
2018-09-19T07:37:27.862Z,19.15
2018-09-19T07:39:56.420Z,12.47
2018-09-19T07:42:25.128Z,19.62
2018-09-19T07:44:53.900Z,13.18
2018-09-19T07:47:22.533Z,17.50
2018-09-19T07:49:51.176Z,23.18
2018-09-19T07:52:19.730Z,17.17
2018-09-19T07:54:48.364Z,13.18
2018-09-19T07:57:16.854Z,14.93
2018-09-19T07:59:45.503Z,15.95
2018-09-19T08:02:15.969Z,13.13
2018-09-19T08:04:51.113Z,14.58
2018-09-19T08:07:19.703Z,14.18
2018-09-19T08:09:48.269Z,17.77
2018-09-19T08:12:17.237Z,12.80
2018-09-19T08:17:24.334Z,11.75
2018-09-19T08:19:53.644Z,10.43
2018-09-19T08:22:22.791Z,14.70
2018-09-19T08:24:51.425Z,16.90
2018-09-19T08:27:19.937Z,15.98
2018-09-19T08:29:48.493Z,16.95
2018-09-19T08:32:17.272Z,10.20
2018-09-19T08:34:47.074Z,14.50
2018-09-19T08:37:15.554Z,14.38
2018-09-19T08:39:44.155Z,14.13
2018-09-19T08:42:12.848Z,13.05
2018-09-19T08:44:45.416Z,14.53
2018-09-19T08:47:14.186Z,16.37
2018-09-19T08:49:42.976Z,10.58
2018-09-19T08:52:11.485Z,16.70
2018-09-19T08:54:40.571Z,13.93
2018-09-19T08:57:09.564Z,14.20
2018-09-19T08:59:38.849Z,18.57
2018-09-19T09:02:13.854Z,14.68
2018-09-19T09:04:45.307Z,18.67
2018-09-19T09:07:13.819Z,16.75
2018-09-19T09:09:42.287Z,13.03
2018-09-19T09:12:12.498Z,12.40
2018-09-19T09:14:41.161Z,14.50
2018-09-19T09:17:10.291Z,13.18
2018-09-19T09:19:38.857Z,12.43
2018-09-19T09:22:07.594Z,12.18
2018-09-19T09:24:37.576Z,12.05
2018-09-19T09:27:10.251Z,15.05
2018-09-19T09:29:38.949Z,13.83
2018-09-19T09:32:08.007Z,12.43
2018-09-19T10:21:37.902Z,18.55
2018-09-19T10:24:06.517Z,18.40
2018-09-19T10:26:35.419Z,12.60
2018-09-19T10:29:03.954Z,14.93
2018-09-19T10:31:32.623Z,12.43
2018-09-19T10:34:02.036Z,10.82
2018-09-19T10:36:30.592Z,11.03
2018-09-19T10:38:59.851Z,11.45
2018-09-19T10:41:28.698Z,10.40
2018-09-19T10:43:57.946Z,9.28
2018-09-19T10:46:26.792Z,8.50
2018-09-19T10:48:55.561Z,8.93
2018-09-19T10:51:24.150Z,9.43
2018-09-19T10:53:53.392Z,8.50
2018-09-19T10:56:22.023Z,9.60
2018-09-19T10:58:50.973Z,7.25
2018-09-19T11:01:22.902Z,7.75
2018-09-19T11:03:51.788Z,10.55
2018-09-19T11:06:20.664Z,9.08
2018-09-19T11:08:49.324Z,8.38
2018-09-19T11:11:18.237Z,10.10
2018-09-19T11:13:46.892Z,8.48
2018-09-19T11:16:15.509Z,8.50
2018-09-19T11:18:44.089Z,8.35
2018-09-19T11:21:13.220Z,7.67
2018-09-19T11:23:45.151Z,6.97
2018-09-19T11:26:14.257Z,7.00
2018-09-19T11:28:42.945Z,7.35
2018-09-19T11:31:11.852Z,10.90
2018-09-19T11:33:45.816Z,6.75
2018-09-19T11:36:15.101Z,8.35
2018-09-19T11:38:43.920Z,7.37
2018-09-19T11:41:12.623Z,8.45
2018-09-19T11:43:41.497Z,7.42
2018-09-19T11:46:10.936Z,6.67
2018-09-19T11:48:41.791Z,8.40
2018-09-19T11:51:10.934Z,6.40
2018-09-19T11:53:40.356Z,8.85
2018-09-19T11:56:09.607Z,6.03
2018-09-19T11:58:49.813Z,6.90
2018-09-19T12:01:18.779Z,5.50
2018-09-19T12:03:47.823Z,9.27
2018-09-19T12:06:16.595Z,6.55
2018-09-19T12:08:45.666Z,6.50
2018-09-19T12:11:15.016Z,8.48
2018-09-19T12:13:43.476Z,7.17
2018-09-19T12:16:12.066Z,9.70
2018-09-19T12:18:40.807Z,6.75
2018-09-19T12:21:09.798Z,7.27
2018-09-19T12:23:38.700Z,6.85
2018-09-19T12:26:07.348Z,8.10
2018-09-19T12:28:36.269Z,6.33
2018-09-19T12:31:05.486Z,6.27
2018-09-19T12:33:34.479Z,8.35
2018-09-19T12:36:03.147Z,4.95
2018-09-19T12:38:31.791Z,7.55
2018-09-19T12:41:00.331Z,8.53
2018-09-19T12:43:29.101Z,5.72
2018-09-19T12:45:57.892Z,5.03
2018-09-19T12:48:26.381Z,5.05
2018-09-19T12:50:54.868Z,4.70
2018-09-19T12:53:24.439Z,7.12
2018-09-19T12:55:54.244Z,3.77
2018-09-19T12:58:23.162Z,9.48
2018-09-19T13:00:52.466Z,7.45
2018-09-19T13:03:21.204Z,7.33
2018-09-19T13:05:50.656Z,6.67
2018-09-19T13:08:19.249Z,7.58
2018-09-19T13:10:47.936Z,4.30
2018-09-19T13:13:16.466Z,5.17
2018-09-19T13:15:45.380Z,3.92
2018-09-19T13:18:13.885Z,5.62
2018-09-19T13:20:42.789Z,9.50
2018-09-19T13:23:11.390Z,6.67
2018-09-19T13:25:40.454Z,7.42
2018-09-19T13:28:09.037Z,4.60
2018-09-19T13:30:37.963Z,3.65
2018-09-19T13:33:06.987Z,5.00
2018-09-19T13:35:35.543Z,6.75
2018-09-19T13:38:04.557Z,5.80
2018-09-19T13:40:33.223Z,3.95
2018-09-19T13:43:02.092Z,5.87
2018-09-19T13:45:30.630Z,6.10
2018-09-19T13:48:00.259Z,6.90
2018-09-19T13:50:43.914Z,3.85
2018-09-19T13:53:12.504Z,6.37
2018-09-19T13:55:41.116Z,5.28
2018-09-19T13:58:10.469Z,7.05
2018-09-19T14:00:39.346Z,6.30
2018-09-19T14:03:07.877Z,9.73
2018-09-19T14:05:36.388Z,5.75
2018-09-19T14:08:06.035Z,5.47
2018-09-19T14:10:34.973Z,4.65
2018-09-19T14:13:03.798Z,6.22
2018-09-19T14:15:32.423Z,6.53
2018-09-19T14:18:01.221Z,4.37
2018-09-19T14:20:29.711Z,5.80
2018-09-19T14:22:58.412Z,6.90
2018-09-19T14:25:26.917Z,5.97
2018-09-19T14:27:55.653Z,5.43
2018-09-19T14:30:24.298Z,5.67
2018-09-19T14:32:52.936Z,4.12
2018-09-19T14:35:21.607Z,5.42
2018-09-19T14:37:51.598Z,4.92
2018-09-19T14:40:20.269Z,4.97
2018-09-19T14:42:58.523Z,5.15
2018-09-19T14:45:27.066Z,7.78
2018-09-19T14:47:55.887Z,5.30
2018-09-19T14:50:24.986Z,6.80
2018-09-19T14:52:53.819Z,6.70
2018-09-19T14:55:22.554Z,5.22
2018-09-19T14:57:51.250Z,6.00
2018-09-19T15:00:20.254Z,7.42
2018-09-19T15:02:49.457Z,4.22
2018-09-19T15:05:18.763Z,5.30
2018-09-19T15:07:47.443Z,4.03
2018-09-19T15:10:15.970Z,6.17
2018-09-19T15:12:44.634Z,6.97
2018-09-19T15:15:13.600Z,8.93
2018-09-19T15:17:42.300Z,6.97
2018-09-19T15:20:11.058Z,4.60
2018-09-19T15:22:39.771Z,4.20
2018-09-19T15:25:08.537Z,5.45
2018-09-19T15:27:38.021Z,4.22
2018-09-19T15:30:07.129Z,3.12
2018-09-19T15:32:36.360Z,6.55
2018-09-19T15:35:06.210Z,6.37
2018-09-19T15:37:34.932Z,4.37
2018-09-19T15:40:03.484Z,3.77
2018-09-19T15:42:32.363Z,5.15
2018-09-19T15:45:02.039Z,7.50
2018-09-19T15:47:30.759Z,4.67
2018-09-19T15:49:59.385Z,6.30
2018-09-19T15:52:31.944Z,3.70
2018-09-19T15:55:00.784Z,5.03
2018-09-19T15:57:30.648Z,4.87
2018-09-19T16:00:00.287Z,5.20
2018-09-19T16:02:29.080Z,3.87
2018-09-19T16:05:00.662Z,5.67
2018-09-19T16:07:31.123Z,4.42
2018-09-19T16:09:59.731Z,6.20
2018-09-19T16:12:28.368Z,6.72
2018-09-19T16:14:56.952Z,5.50
2018-09-19T16:17:25.395Z,4.78
2018-09-19T16:19:53.970Z,6.08
2018-09-19T16:22:22.532Z,6.42
2018-09-19T16:24:52.618Z,4.50
2018-09-19T16:27:21.050Z,5.50
2018-09-19T16:29:49.533Z,6.62
2018-09-19T16:32:18.246Z,5.90
2018-09-19T16:34:46.832Z,4.92
2018-09-19T16:37:15.348Z,4.60
2018-09-19T16:39:44.028Z,4.70
2018-09-19T16:42:12.709Z,4.08
2018-09-19T16:44:41.278Z,4.20
2018-09-19T16:47:11.544Z,6.50
2018-09-19T16:49:40.027Z,7.08
2018-09-19T16:52:08.674Z,5.45
2018-09-19T16:54:37.203Z,5.12
2018-09-19T16:57:05.833Z,7.33
2018-09-19T16:59:34.260Z,7.55
2018-09-19T17:02:03.011Z,5.53
2018-09-19T17:04:31.749Z,7.25
2018-09-19T17:07:01.347Z,4.50
2018-09-19T17:09:30.186Z,6.00
2018-09-19T17:11:58.848Z,6.47
2018-09-19T17:14:27.467Z,7.65
2018-09-19T17:16:56.195Z,7.25
2018-09-19T17:19:24.982Z,7.50
2018-09-19T17:21:53.624Z,6.58
2018-09-19T17:24:22.421Z,7.43
2018-09-19T17:26:50.907Z,8.13
2018-09-19T17:29:19.588Z,6.03
2018-09-19T17:31:48.374Z,5.67
2018-09-19T17:34:17.310Z,6.22
2018-09-19T17:36:46.069Z,10.38
2018-09-19T17:39:14.629Z,6.53
2018-09-19T17:41:43.628Z,8.85
2018-09-19T17:44:12.315Z,8.95
2018-09-19T17:46:40.902Z,7.53
2018-09-19T17:49:09.637Z,4.97
2018-09-19T17:51:40.148Z,5.75
2018-09-19T17:54:08.950Z,13.55
2018-09-19T17:56:39.564Z,9.80
2018-09-19T17:59:08.552Z,8.58
2018-09-19T18:01:37.406Z,6.75
2018-09-19T18:04:06.174Z,11.08
2018-09-19T18:06:34.776Z,9.30
2018-09-19T18:09:03.415Z,7.75
2018-09-19T18:11:32.152Z,12.70
2018-09-19T18:14:00.794Z,5.87
2018-09-19T18:16:29.320Z,10.72
2018-09-19T18:18:57.899Z,10.03
2018-09-19T18:21:27.674Z,8.38
2018-09-19T18:23:56.908Z,7.70
2018-09-19T18:26:25.859Z,8.33
2018-09-19T18:28:54.429Z,9.63
2018-09-19T18:31:23.095Z,9.15
2018-09-19T18:33:51.944Z,8.43
2018-09-19T18:36:20.507Z,6.30
2018-09-19T18:38:49.260Z,6.95
2018-09-19T18:41:17.894Z,7.22
2018-09-19T18:43:46.504Z,7.92
2018-09-19T18:46:15.292Z,5.37
2018-09-19T18:48:43.868Z,5.22
2018-09-19T18:51:14.328Z,5.20
2018-09-19T18:53:42.989Z,7.58
2018-09-19T18:56:11.600Z,3.98
2018-09-19T18:58:40.275Z,6.40
2018-09-19T19:01:09.661Z,8.63
2018-09-19T19:03:38.303Z,9.55
2018-09-19T19:06:07.032Z,6.62
2018-09-19T19:08:36.703Z,7.83
2018-09-19T19:11:05.485Z,7.62
2018-09-19T19:13:34.141Z,9.18
2018-09-19T19:16:02.793Z,9.60
2018-09-19T19:18:31.440Z,6.33
2018-09-19T19:20:59.923Z,6.60
2018-09-19T19:23:28.800Z,7.33
2018-09-19T19:25:57.581Z,4.65
2018-09-19T19:28:26.763Z,6.28
2018-09-19T19:30:55.334Z,5.97
2018-09-19T19:33:24.024Z,4.08
2018-09-19T19:35:52.580Z,5.12
2018-09-19T19:38:21.194Z,9.00
2018-09-19T19:40:49.904Z,6.45
2018-09-19T19:43:18.355Z,5.72
2018-09-19T19:45:46.930Z,5.62
2018-09-19T19:48:15.714Z,4.37
2018-09-19T19:50:44.698Z,5.70
2018-09-19T19:53:13.736Z,5.00
2018-09-19T19:55:42.272Z,3.60
2018-09-19T19:58:11.448Z,6.65
2018-09-19T20:00:40.178Z,5.12
2018-09-19T20:03:09.075Z,5.75
2018-09-19T20:05:38.250Z,4.85
2018-09-19T20:08:07.256Z,5.83
2018-09-19T20:10:37.043Z,5.53
2018-09-19T20:13:06.239Z,5.12
2018-09-19T20:15:34.957Z,6.12
2018-09-19T20:18:03.757Z,5.62
2018-09-19T20:20:32.419Z,7.70
2018-09-19T20:23:01.010Z,10.35
2018-09-19T20:25:29.705Z,4.17
2018-09-19T20:27:58.542Z,6.83
2018-09-19T20:30:28.209Z,8.33
2018-09-19T20:32:56.877Z,9.25
2018-09-19T20:35:25.597Z,7.67
2018-09-19T20:37:54.351Z,5.08
2018-09-19T20:40:23.714Z,5.42
2018-09-19T20:42:52.989Z,9.08
2018-09-19T20:45:21.745Z,7.83
2018-09-19T20:47:50.401Z,6.42
2018-09-19T20:50:19.177Z,8.48
2018-09-19T20:52:47.778Z,7.45
2018-09-19T20:55:16.416Z,4.97
2018-09-19T20:57:45.422Z,4.87
2018-09-19T21:00:14.132Z,7.47
2018-09-19T21:02:47.862Z,4.60
2018-09-19T21:05:16.418Z,8.30
2018-09-19T21:07:45.104Z,6.67
2018-09-19T21:10:13.878Z,6.72
2018-09-19T21:12:47.493Z,6.87
2018-09-19T21:15:16.100Z,6.95
2018-09-19T21:17:44.773Z,6.33
2018-09-19T21:20:13.378Z,7.40
2018-09-19T21:22:42.032Z,9.43
2018-09-19T21:25:10.667Z,6.65
2018-09-19T21:27:39.338Z,6.42
2018-09-19T21:30:07.962Z,5.42
2018-09-19T21:32:36.500Z,7.90
2018-09-19T21:35:05.269Z,7.75
2018-09-19T21:37:34.096Z,6.37
2018-09-19T21:40:02.785Z,5.83
2018-09-19T21:42:31.354Z,4.55
2018-09-19T21:44:59.899Z,5.15
2018-09-19T21:47:28.349Z,8.75
2018-09-19T21:49:57.125Z,6.95
2018-09-19T21:52:26.186Z,8.00
2018-09-19T21:54:54.934Z,7.62
2018-09-19T21:57:23.515Z,5.12
2018-09-19T21:59:52.163Z,5.87
2018-09-19T22:02:20.843Z,7.33
2018-09-19T22:04:49.405Z,5.33
2018-09-19T22:07:18.006Z,4.45
2018-09-19T22:09:46.567Z,8.88
2018-09-19T22:12:15.050Z,5.67
2018-09-19T22:14:44.035Z,8.45
2018-09-19T22:17:12.553Z,5.75
2018-09-19T22:19:41.043Z,4.22
2018-09-19T22:22:09.515Z,5.47
2018-09-19T22:24:37.973Z,5.20
2018-09-19T22:27:06.458Z,4.58
2018-09-19T22:29:34.938Z,5.35
2018-09-19T22:32:03.859Z,8.73
2018-09-19T22:34:32.301Z,7.05
2018-09-19T22:37:00.790Z,7.40
2018-09-19T22:39:29.216Z,6.37
2018-09-19T22:41:57.642Z,5.03
2018-09-19T22:44:26.499Z,4.28
2018-09-19T22:46:55.419Z,6.95
2018-09-19T22:49:24.246Z,8.50
2018-09-19T22:51:52.795Z,6.05
2018-09-19T22:54:21.208Z,4.60
2018-09-19T22:56:49.650Z,5.17
2018-09-19T22:59:18.190Z,5.17
2018-09-19T23:01:46.961Z,5.50
2018-09-19T23:04:15.575Z,5.33
2018-09-19T23:06:44.169Z,5.00
2018-09-19T23:09:12.692Z,5.08
2018-09-19T23:11:42.281Z,8.05
2018-09-19T23:14:45.034Z,4.92
2018-09-19T23:17:13.757Z,5.67
2018-09-19T23:19:42.641Z,4.67
2018-09-19T23:22:11.533Z,5.75
2018-09-19T23:24:40.371Z,4.67
2018-09-19T23:27:09.062Z,7.83
2018-09-19T23:29:38.005Z,5.50
2018-09-19T23:32:06.799Z,5.53
2018-09-19T23:34:35.687Z,6.42
2018-09-19T23:37:04.475Z,4.97
2018-09-19T23:39:33.130Z,6.22
2018-09-19T23:42:01.977Z,11.60
2018-09-19T23:44:31.144Z,10.63
2018-09-19T23:47:00.139Z,9.15
2018-09-19T23:49:29.053Z,9.68
2018-09-19T23:51:58.431Z,8.28
2018-09-19T23:54:27.542Z,6.75
2018-09-19T23:56:56.930Z,5.58
2018-09-19T23:59:25.551Z,4.45
